Partly Cloudy Current Weather (METAR) For Manchester Airport

All times on the weather descriptions are local

Observed at 10:20 - (17 mins ago)

Partly Cloudy

18°C

Partly Cloudy
Clouds: Scattered Clouds at 1,300ft
Wind: 100° at 04 knots, varying from 070° to 150
Visibility: 9,000m
QNH: 1012
Dew Point: 15°C
Runway in Use: Likely Runways 05L/R

Sunrise Today: 06:47
Sunset Today: 19:19

Forecast Weather (TAF) For Manchester Airport

Issued at 01:00 - (12 days ago)


Runway in Use: Likely Runways 23L/R

Forecast valid until 01:00 on Tuesday

METAR/TAF RAW METAR / TAF

EGCC 180920Z 10004KT 070V150 9000 SCT013 18/15 Q1012 NOSIG

Weather Widget

Put weather from any of our airports on your website with our weather widget.

Find Another Search

Airport Search


Please Wait Please Wait - Loading
Close
Close

Login

Username:

Password:

Remember Me:

Remember me on this computer

Forgotten your password? Get a reset password sent to your registered e-mail address

Close

User Private Message

Subject:

Message: